sensor_id;sensor_type;location;lat;lon;timestamp;temperature;humidity
5009;DHT22;2523;51.058;6.922;2023-06-05T00:00:56;17.00;98.30
5009;DHT22;2523;51.058;6.922;2023-06-05T00:03:22;17.00;99.90
5009;DHT22;2523;51.058;6.922;2023-06-05T00:05:49;17.00;99.90
5009;DHT22;2523;51.058;6.922;2023-06-05T00:08:15;17.00;99.70
5009;DHT22;2523;51.058;6.922;2023-06-05T00:10:41;17.00;99.90
5009;DHT22;2523;51.058;6.922;2023-06-05T00:13:07;17.00;99.90
5009;DHT22;2523;51.058;6.922;2023-06-05T00:15:32;17.10;95.10
5009;DHT22;2523;51.058;6.922;2023-06-05T00:18:01;16.90;97.90
5009;DHT22;2523;51.058;6.922;2023-06-05T00:20:27;16.90;99.90
5009;DHT22;2523;51.058;6.922;2023-06-05T00:22:53;16.80;99.90
5009;DHT22;2523;51.058;6.922;2023-06-05T00:25:20;16.80;99.90
5009;DHT22;2523;51.058;6.922;2023-06-05T00:27:46;16.80;99.90
5009;DHT22;2523;51.058;6.922;2023-06-05T00:30:12;16.90;92.80
5009;DHT22;2523;51.058;6.922;2023-06-05T00:32:39;16.80;93.90
5009;DHT22;2523;51.058;6.922;2023-06-05T00:35:06;16.90;91.50
5009;DHT22;2523;51.058;6.922;2023-06-05T00:37:32;16.90;95.70
5009;DHT22;2523;51.058;6.922;2023-06-05T00:39:59;16.80;99.90
5009;DHT22;2523;51.058;6.922;2023-06-05T00:42:25;16.80;99.90
5009;DHT22;2523;51.058;6.922;2023-06-05T00:44:52;16.70;99.90
5009;DHT22;2523;51.058;6.922;2023-06-05T00:47:17;16.70;99.90
5009;DHT22;2523;51.058;6.922;2023-06-05T00:49:43;16.60;99.90
5009;DHT22;2523;51.058;6.922;2023-06-05T00:52:09;16.60;99.90
5009;DHT22;2523;51.058;6.922;2023-06-05T00:54:35;16.60;99.90
5009;DHT22;2523;51.058;6.922;2023-06-05T00:57:01;16.50;99.90
5009;DHT22;2523;51.058;6.922;2023-06-05T00:59:29;16.50;99.90
5009;DHT22;2523;51.058;6.922;2023-06-05T01:01:54;16.50;99.90
5009;DHT22;2523;51.058;6.922;2023-06-05T01:04:21;16.60;99.90
5009;DHT22;2523;51.058;6.922;2023-06-05T01:06:48;16.60;99.90
5009;DHT22;2523;51.058;6.922;2023-06-05T01:09:16;16.60;99.90
5009;DHT22;2523;51.058;6.922;2023-06-05T01:12:05;16.60;99.90
5009;DHT22;2523;51.058;6.922;2023-06-05T01:14:35;16.50;99.90
5009;DHT22;2523;51.058;6.922;2023-06-05T01:17:02;16.40;99.90
5009;DHT22;2523;51.058;6.922;2023-06-05T01:19:28;16.40;99.90
5009;DHT22;2523;51.058;6.922;2023-06-05T01:21:57;16.30;99.90
5009;DHT22;2523;51.058;6.922;2023-06-05T01:24:23;16.30;99.90
5009;DHT22;2523;51.058;6.922;2023-06-05T01:29:55;16.20;99.90
5009;DHT22;2523;51.058;6.922;2023-06-05T01:32:28;16.10;99.90
5009;DHT22;2523;51.058;6.922;2023-06-05T01:34:55;16.00;99.90
5009;DHT22;2523;51.058;6.922;2023-06-05T01:37:22;15.90;99.90
5009;DHT22;2523;51.058;6.922;2023-06-05T01:39:50;15.90;99.90
5009;DHT22;2523;51.058;6.922;2023-06-05T01:42:16;15.80;99.90
5009;DHT22;2523;51.058;6.922;2023-06-05T01:44:43;15.80;99.90
5009;DHT22;2523;51.058;6.922;2023-06-05T01:47:10;15.70;99.90
5009;DHT22;2523;51.058;6.922;2023-06-05T01:49:36;15.70;99.90
5009;DHT22;2523;51.058;6.922;2023-06-05T01:52:01;15.70;99.90
5009;DHT22;2523;51.058;6.922;2023-06-05T01:54:27;15.60;99.90
5009;DHT22;2523;51.058;6.922;2023-06-05T01:56:53;15.50;99.90
5009;DHT22;2523;51.058;6.922;2023-06-05T01:59:20;15.50;99.90
5009;DHT22;2523;51.058;6.922;2023-06-05T02:01:47;15.50;99.90
5009;DHT22;2523;51.058;6.922;2023-06-05T02:04:13;15.40;99.90
5009;DHT22;2523;51.058;6.922;2023-06-05T02:06:42;15.40;99.90
5009;DHT22;2523;51.058;6.922;2023-06-05T02:09:09;15.30;99.90
5009;DHT22;2523;51.058;6.922;2023-06-05T02:11:36;15.40;99.90
5009;DHT22;2523;51.058;6.922;2023-06-05T02:14:03;15.30;99.90
5009;DHT22;2523;51.058;6.922;2023-06-05T02:16:30;15.40;99.90
5009;DHT22;2523;51.058;6.922;2023-06-05T02:18:56;15.30;99.90
5009;DHT22;2523;51.058;6.922;2023-06-05T02:21:30;15.30;99.90
5009;DHT22;2523;51.058;6.922;2023-06-05T02:24:01;15.30;99.90
5009;DHT22;2523;51.058;6.922;2023-06-05T02:26:27;15.30;99.90
5009;DHT22;2523;51.058;6.922;2023-06-05T02:28:54;15.30;99.90
5009;DHT22;2523;51.058;6.922;2023-06-05T02:31:23;15.40;99.90
5009;DHT22;2523;51.058;6.922;2023-06-05T02:33:54;15.40;99.90
5009;DHT22;2523;51.058;6.922;2023-06-05T02:36:21;15.40;99.90
5009;DHT22;2523;51.058;6.922;2023-06-05T02:38:47;15.40;99.90
5009;DHT22;2523;51.058;6.922;2023-06-05T02:41:16;15.40;99.90
5009;DHT22;2523;51.058;6.922;2023-06-05T02:43:41;15.30;99.90
5009;DHT22;2523;51.058;6.922;2023-06-05T02:46:07;15.30;99.90
5009;DHT22;2523;51.058;6.922;2023-06-05T02:48:32;15.30;99.90
5009;DHT22;2523;51.058;6.922;2023-06-05T02:50:58;15.40;99.90
5009;DHT22;2523;51.058;6.922;2023-06-05T02:53:23;15.40;99.90
5009;DHT22;2523;51.058;6.922;2023-06-05T02:55:49;15.40;99.90
5009;DHT22;2523;51.058;6.922;2023-06-05T02:58:15;15.40;99.90
5009;DHT22;2523;51.058;6.922;2023-06-05T03:00:43;15.40;99.90
5009;DHT22;2523;51.058;6.922;2023-06-05T03:03:10;15.40;99.90
5009;DHT22;2523;51.058;6.922;2023-06-05T03:05:36;15.30;99.90
5009;DHT22;2523;51.058;6.922;2023-06-05T03:08:02;15.30;99.90
5009;DHT22;2523;51.058;6.922;2023-06-05T03:10:28;15.20;99.90
5009;DHT22;2523;51.058;6.922;2023-06-05T03:12:54;15.20;99.90
5009;DHT22;2523;51.058;6.922;2023-06-05T03:15:20;15.20;99.90
5009;DHT22;2523;51.058;6.922;2023-06-05T03:17:46;15.00;99.90
5009;DHT22;2523;51.058;6.922;2023-06-05T03:20:13;15.00;99.90
5009;DHT22;2523;51.058;6.922;2023-06-05T03:22:39;15.00;99.90
5009;DHT22;2523;51.058;6.922;2023-06-05T03:25:05;14.90;99.90
5009;DHT22;2523;51.058;6.922;2023-06-05T03:27:31;14.90;99.90
5009;DHT22;2523;51.058;6.922;2023-06-05T03:29:56;14.80;99.90
5009;DHT22;2523;51.058;6.922;2023-06-05T03:32:24;14.80;99.90
5009;DHT22;2523;51.058;6.922;2023-06-05T03:34:49;14.80;99.90
5009;DHT22;2523;51.058;6.922;2023-06-05T03:37:15;14.80;99.90
5009;DHT22;2523;51.058;6.922;2023-06-05T03:39:41;14.80;99.90
5009;DHT22;2523;51.058;6.922;2023-06-05T03:42:06;14.80;99.90
5009;DHT22;2523;51.058;6.922;2023-06-05T03:44:34;14.80;99.90
5009;DHT22;2523;51.058;6.922;2023-06-05T03:47:00;14.80;99.90
5009;DHT22;2523;51.058;6.922;2023-06-05T03:49:25;14.80;99.90
5009;DHT22;2523;51.058;6.922;2023-06-05T03:51:51;14.70;99.90
5009;DHT22;2523;51.058;6.922;2023-06-05T03:54:17;14.60;99.90
5009;DHT22;2523;51.058;6.922;2023-06-05T03:56:43;14.70;99.90
5009;DHT22;2523;51.058;6.922;2023-06-05T03:59:15;14.70;99.90
5009;DHT22;2523;51.058;6.922;2023-06-05T04:01:45;14.60;99.90
5009;DHT22;2523;51.058;6.922;2023-06-05T04:04:10;14.60;99.90
5009;DHT22;2523;51.058;6.922;2023-06-05T04:06:36;14.60;99.90
5009;DHT22;2523;51.058;6.922;2023-06-05T04:09:03;14.70;99.90
5009;DHT22;2523;51.058;6.922;2023-06-05T04:11:35;14.70;99.90
5009;DHT22;2523;51.058;6.922;2023-06-05T04:14:01;14.70;99.90
5009;DHT22;2523;51.058;6.922;2023-06-05T04:16:26;14.80;99.90
5009;DHT22;2523;51.058;6.922;2023-06-05T04:18:52;14.80;99.90
5009;DHT22;2523;51.058;6.922;2023-06-05T04:21:17;14.80;99.90
5009;DHT22;2523;51.058;6.922;2023-06-05T04:23:43;14.90;99.90
5009;DHT22;2523;51.058;6.922;2023-06-05T04:26:09;14.90;99.90
5009;DHT22;2523;51.058;6.922;2023-06-05T04:28:34;14.90;99.90
5009;DHT22;2523;51.058;6.922;2023-06-05T04:31:00;14.90;99.90
5009;DHT22;2523;51.058;6.922;2023-06-05T04:33:27;14.90;99.90
5009;DHT22;2523;51.058;6.922;2023-06-05T04:35:52;15.00;99.90
5009;DHT22;2523;51.058;6.922;2023-06-05T04:38:18;14.90;99.90
5009;DHT22;2523;51.058;6.922;2023-06-05T04:40:47;15.00;99.90
5009;DHT22;2523;51.058;6.922;2023-06-05T04:43:14;15.10;99.90
5009;DHT22;2523;51.058;6.922;2023-06-05T04:45:39;15.20;99.90
5009;DHT22;2523;51.058;6.922;2023-06-05T04:48:07;15.30;99.90
5009;DHT22;2523;51.058;6.922;2023-06-05T04:50:32;15.30;99.90
5009;DHT22;2523;51.058;6.922;2023-06-05T04:52:59;15.40;99.90
5009;DHT22;2523;51.058;6.922;2023-06-05T04:55:24;15.50;99.90
5009;DHT22;2523;51.058;6.922;2023-06-05T04:57:50;15.60;99.90
5009;DHT22;2523;51.058;6.922;2023-06-05T05:00:16;15.60;99.90
5009;DHT22;2523;51.058;6.922;2023-06-05T05:02:42;15.60;99.90
5009;DHT22;2523;51.058;6.922;2023-06-05T05:05:08;15.70;99.90
5009;DHT22;2523;51.058;6.922;2023-06-05T05:07:34;15.80;99.90
5009;DHT22;2523;51.058;6.922;2023-06-05T05:10:01;15.90;99.90
5009;DHT22;2523;51.058;6.922;2023-06-05T05:12:26;15.80;99.90
5009;DHT22;2523;51.058;6.922;2023-06-05T05:14:52;15.90;99.90
5009;DHT22;2523;51.058;6.922;2023-06-05T05:17:17;16.00;99.90
5009;DHT22;2523;51.058;6.922;2023-06-05T05:19:44;16.00;99.90
5009;DHT22;2523;51.058;6.922;2023-06-05T05:22:10;16.00;99.90
5009;DHT22;2523;51.058;6.922;2023-06-05T05:24:36;16.10;99.90
5009;DHT22;2523;51.058;6.922;2023-06-05T05:27:02;16.10;99.90
5009;DHT22;2523;51.058;6.922;2023-06-05T05:29:28;16.10;99.90
5009;DHT22;2523;51.058;6.922;2023-06-05T05:31:53;16.20;99.90
5009;DHT22;2523;51.058;6.922;2023-06-05T05:34:20;16.20;99.90
5009;DHT22;2523;51.058;6.922;2023-06-05T05:36:45;16.20;99.90
5009;DHT22;2523;51.058;6.922;2023-06-05T05:39:11;16.30;99.90
5009;DHT22;2523;51.058;6.922;2023-06-05T05:41:37;16.30;99.90
5009;DHT22;2523;51.058;6.922;2023-06-05T05:44:02;16.40;99.90
5009;DHT22;2523;51.058;6.922;2023-06-05T05:46:28;16.50;99.90
5009;DHT22;2523;51.058;6.922;2023-06-05T05:48:53;16.60;99.90
5009;DHT22;2523;51.058;6.922;2023-06-05T05:51:20;16.70;99.90
5009;DHT22;2523;51.058;6.922;2023-06-05T05:53:46;16.70;99.90
5009;DHT22;2523;51.058;6.922;2023-06-05T05:56:12;16.70;99.90
5009;DHT22;2523;51.058;6.922;2023-06-05T05:58:37;16.80;99.90
5009;DHT22;2523;51.058;6.922;2023-06-05T06:01:03;16.90;99.90
5009;DHT22;2523;51.058;6.922;2023-06-05T06:03:29;17.00;99.90
5009;DHT22;2523;51.058;6.922;2023-06-05T06:05:55;17.00;99.90
5009;DHT22;2523;51.058;6.922;2023-06-05T06:08:22;17.00;99.90
5009;DHT22;2523;51.058;6.922;2023-06-05T06:10:48;17.00;99.90
5009;DHT22;2523;51.058;6.922;2023-06-05T06:13:14;17.00;99.90
5009;DHT22;2523;51.058;6.922;2023-06-05T06:15:39;16.90;99.90
5009;DHT22;2523;51.058;6.922;2023-06-05T06:18:06;16.80;99.90
5009;DHT22;2523;51.058;6.922;2023-06-05T06:20:31;17.00;99.90
5009;DHT22;2523;51.058;6.922;2023-06-05T06:22:59;17.00;99.90
5009;DHT22;2523;51.058;6.922;2023-06-05T06:25:24;17.10;99.90
5009;DHT22;2523;51.058;6.922;2023-06-05T06:27:54;17.20;99.90
5009;DHT22;2523;51.058;6.922;2023-06-05T06:30:20;17.20;99.90
5009;DHT22;2523;51.058;6.922;2023-06-05T06:32:49;17.00;99.90
5009;DHT22;2523;51.058;6.922;2023-06-05T06:35:15;17.20;99.90
5009;DHT22;2523;51.058;6.922;2023-06-05T06:37:41;17.30;99.90
5009;DHT22;2523;51.058;6.922;2023-06-05T06:40:08;17.30;99.90
5009;DHT22;2523;51.058;6.922;2023-06-05T06:42:37;17.40;99.90
5009;DHT22;2523;51.058;6.922;2023-06-05T06:45:03;17.40;99.90
5009;DHT22;2523;51.058;6.922;2023-06-05T06:47:30;17.50;99.90
5009;DHT22;2523;51.058;6.922;2023-06-05T06:49:55;17.60;99.90
5009;DHT22;2523;51.058;6.922;2023-06-05T06:52:22;17.60;99.90
5009;DHT22;2523;51.058;6.922;2023-06-05T06:54:49;17.60;99.90
5009;DHT22;2523;51.058;6.922;2023-06-05T06:57:15;17.70;99.90
5009;DHT22;2523;51.058;6.922;2023-06-05T06:59:40;17.70;99.90
5009;DHT22;2523;51.058;6.922;2023-06-05T07:02:10;17.80;99.90
5009;DHT22;2523;51.058;6.922;2023-06-05T07:04:36;17.80;99.90
5009;DHT22;2523;51.058;6.922;2023-06-05T07:07:03;17.90;99.90
5009;DHT22;2523;51.058;6.922;2023-06-05T07:09:28;18.00;99.90
5009;DHT22;2523;51.058;6.922;2023-06-05T07:11:54;18.10;99.90
5009;DHT22;2523;51.058;6.922;2023-06-05T07:14:21;18.20;99.90
5009;DHT22;2523;51.058;6.922;2023-06-05T07:16:47;18.30;99.90
5009;DHT22;2523;51.058;6.922;2023-06-05T07:19:14;18.40;99.90
5009;DHT22;2523;51.058;6.922;2023-06-05T07:21:41;18.50;99.90
5009;DHT22;2523;51.058;6.922;2023-06-05T07:24:06;18.60;99.90
5009;DHT22;2523;51.058;6.922;2023-06-05T07:26:33;18.60;99.90
5009;DHT22;2523;51.058;6.922;2023-06-05T07:28:59;18.60;99.90
5009;DHT22;2523;51.058;6.922;2023-06-05T07:31:25;18.70;99.90
5009;DHT22;2523;51.058;6.922;2023-06-05T07:33:51;18.70;99.90
5009;DHT22;2523;51.058;6.922;2023-06-05T07:36:17;18.80;99.90
5009;DHT22;2523;51.058;6.922;2023-06-05T07:38:43;18.80;99.90
5009;DHT22;2523;51.058;6.922;2023-06-05T07:41:10;18.90;99.90
5009;DHT22;2523;51.058;6.922;2023-06-05T07:43:37;18.90;99.90
5009;DHT22;2523;51.058;6.922;2023-06-05T07:46:05;18.90;99.90
5009;DHT22;2523;51.058;6.922;2023-06-05T07:48:30;19.00;99.90
5009;DHT22;2523;51.058;6.922;2023-06-05T07:50:56;19.00;99.90
5009;DHT22;2523;51.058;6.922;2023-06-05T07:53:21;19.20;99.90
5009;DHT22;2523;51.058;6.922;2023-06-05T07:55:47;19.10;99.90
5009;DHT22;2523;51.058;6.922;2023-06-05T07:58:13;19.20;99.90
5009;DHT22;2523;51.058;6.922;2023-06-05T08:00:41;19.30;99.90
5009;DHT22;2523;51.058;6.922;2023-06-05T08:03:14;19.40;99.90
5009;DHT22;2523;51.058;6.922;2023-06-05T08:05:51;19.50;99.90
5009;DHT22;2523;51.058;6.922;2023-06-05T08:08:17;19.60;99.90
5009;DHT22;2523;51.058;6.922;2023-06-05T08:10:43;19.70;99.90
5009;DHT22;2523;51.058;6.922;2023-06-05T08:13:09;19.70;99.90
5009;DHT22;2523;51.058;6.922;2023-06-05T08:15:35;19.70;99.90
5009;DHT22;2523;51.058;6.922;2023-06-05T08:18:02;19.90;99.90
5009;DHT22;2523;51.058;6.922;2023-06-05T08:20:28;20.00;99.90
5009;DHT22;2523;51.058;6.922;2023-06-05T08:22:54;20.10;99.90
5009;DHT22;2523;51.058;6.922;2023-06-05T08:25:25;20.20;99.90
5009;DHT22;2523;51.058;6.922;2023-06-05T08:27:52;20.30;99.90
5009;DHT22;2523;51.058;6.922;2023-06-05T08:30:18;20.40;99.90
5009;DHT22;2523;51.058;6.922;2023-06-05T08:32:44;20.60;99.90
5009;DHT22;2523;51.058;6.922;2023-06-05T08:35:11;20.70;99.90
5009;DHT22;2523;51.058;6.922;2023-06-05T08:37:37;20.80;99.90
5009;DHT22;2523;51.058;6.922;2023-06-05T08:40:04;21.00;99.90
5009;DHT22;2523;51.058;6.922;2023-06-05T08:42:36;21.10;99.90
5009;DHT22;2523;51.058;6.922;2023-06-05T08:45:07;21.20;99.90
5009;DHT22;2523;51.058;6.922;2023-06-05T08:47:35;21.30;99.90
5009;DHT22;2523;51.058;6.922;2023-06-05T08:50:03;21.40;99.90
5009;DHT22;2523;51.058;6.922;2023-06-05T08:52:34;21.60;99.90
5009;DHT22;2523;51.058;6.922;2023-06-05T08:55:05;21.70;99.90
5009;DHT22;2523;51.058;6.922;2023-06-05T08:57:32;21.90;91.60
5009;DHT22;2523;51.058;6.922;2023-06-05T09:00:00;22.00;91.50
5009;DHT22;2523;51.058;6.922;2023-06-05T09:02:26;22.10;50.00
5009;DHT22;2523;51.058;6.922;2023-06-05T09:04:51;22.20;42.40
5009;DHT22;2523;51.058;6.922;2023-06-05T09:07:18;22.20;30.90
5009;DHT22;2523;51.058;6.922;2023-06-05T09:09:44;22.30;32.20
5009;DHT22;2523;51.058;6.922;2023-06-05T09:12:09;22.50;37.50
5009;DHT22;2523;51.058;6.922;2023-06-05T09:14:35;22.70;28.00
5009;DHT22;2523;51.058;6.922;2023-06-05T09:17:02;22.80;26.20
5009;DHT22;2523;51.058;6.922;2023-06-05T09:19:36;22.90;25.50
5009;DHT22;2523;51.058;6.922;2023-06-05T09:22:02;23.10;22.30
5009;DHT22;2523;51.058;6.922;2023-06-05T09:24:28;23.10;23.10
5009;DHT22;2523;51.058;6.922;2023-06-05T09:26:57;23.30;24.30
5009;DHT22;2523;51.058;6.922;2023-06-05T09:29:30;23.50;24.60
5009;DHT22;2523;51.058;6.922;2023-06-05T09:32:01;23.70;24.20
5009;DHT22;2523;51.058;6.922;2023-06-05T09:34:31;23.80;22.20
5009;DHT22;2523;51.058;6.922;2023-06-05T09:36:58;24.00;19.80
5009;DHT22;2523;51.058;6.922;2023-06-05T09:39:25;24.00;19.20
5009;DHT22;2523;51.058;6.922;2023-06-05T09:41:52;24.00;21.90
5009;DHT22;2523;51.058;6.922;2023-06-05T09:44:18;24.10;20.90
5009;DHT22;2523;51.058;6.922;2023-06-05T09:47:07;24.20;14.40
5009;DHT22;2523;51.058;6.922;2023-06-05T09:52:07;24.60;10.10
5009;DHT22;2523;51.058;6.922;2023-06-05T09:54:36;24.70;10.00
5009;DHT22;2523;51.058;6.922;2023-06-05T09:57:04;24.80;8.30
5009;DHT22;2523;51.058;6.922;2023-06-05T09:59:31;24.60;6.40
5009;DHT22;2523;51.058;6.922;2023-06-05T10:02:00;24.80;8.10
5009;DHT22;2523;51.058;6.922;2023-06-05T10:04:28;25.00;8.20
5009;DHT22;2523;51.058;6.922;2023-06-05T10:06:57;25.10;8.10
5009;DHT22;2523;51.058;6.922;2023-06-05T10:09:25;25.10;7.40
5009;DHT22;2523;51.058;6.922;2023-06-05T10:11:51;25.30;7.40
5009;DHT22;2523;51.058;6.922;2023-06-05T10:14:20;25.30;7.30
5009;DHT22;2523;51.058;6.922;2023-06-05T10:16:50;25.60;7.50
5009;DHT22;2523;51.058;6.922;2023-06-05T10:19:20;25.60;6.90
5009;DHT22;2523;51.058;6.922;2023-06-05T10:21:49;25.80;6.90
5009;DHT22;2523;51.058;6.922;2023-06-05T10:24:25;25.80;7.60
5009;DHT22;2523;51.058;6.922;2023-06-05T10:27:04;25.50;6.20
5009;DHT22;2523;51.058;6.922;2023-06-05T10:29:43;25.70;6.60
5009;DHT22;2523;51.058;6.922;2023-06-05T10:40:33;25.60;4.60
5009;DHT22;2523;51.058;6.922;2023-06-05T10:45:53;26.10;6.50
5009;DHT22;2523;51.058;6.922;2023-06-05T10:48:19;26.30;5.70
5009;DHT22;2523;51.058;6.922;2023-06-05T10:50:44;26.50;5.20
5009;DHT22;2523;51.058;6.922;2023-06-05T10:53:45;26.40;5.00
5009;DHT22;2523;51.058;6.922;2023-06-05T10:59:15;26.50;5.80
5009;DHT22;2523;51.058;6.922;2023-06-05T11:01:41;26.70;6.20
5009;DHT22;2523;51.058;6.922;2023-06-05T11:04:07;26.80;6.10
5009;DHT22;2523;51.058;6.922;2023-06-05T11:06:33;26.90;6.00
5009;DHT22;2523;51.058;6.922;2023-06-05T11:09:14;27.20;5.90
5009;DHT22;2523;51.058;6.922;2023-06-05T11:11:59;27.30;4.50
5009;DHT22;2523;51.058;6.922;2023-06-05T11:14:47;27.50;4.20
5009;DHT22;2523;51.058;6.922;2023-06-05T11:17:32;27.30;3.40
5009;DHT22;2523;51.058;6.922;2023-06-05T11:19:59;27.40;4.90
5009;DHT22;2523;51.058;6.922;2023-06-05T11:22:26;27.30;4.60
5009;DHT22;2523;51.058;6.922;2023-06-05T11:27:43;27.10;4.50
5009;DHT22;2523;51.058;6.922;2023-06-05T11:30:12;27.10;5.80
5009;DHT22;2523;51.058;6.922;2023-06-05T11:32:37;27.20;7.40
5009;DHT22;2523;51.058;6.922;2023-06-05T11:35:04;27.30;7.40
5009;DHT22;2523;51.058;6.922;2023-06-05T11:37:30;27.40;7.00
5009;DHT22;2523;51.058;6.922;2023-06-05T11:39:58;27.30;8.50
5009;DHT22;2523;51.058;6.922;2023-06-05T11:42:24;27.50;6.80
5009;DHT22;2523;51.058;6.922;2023-06-05T11:44:50;27.60;6.00
5009;DHT22;2523;51.058;6.922;2023-06-05T11:47:22;27.70;5.60
5009;DHT22;2523;51.058;6.922;2023-06-05T11:49:48;27.90;5.70
5009;DHT22;2523;51.058;6.922;2023-06-05T11:52:21;27.90;5.90
5009;DHT22;2523;51.058;6.922;2023-06-05T11:54:48;28.20;5.50
5009;DHT22;2523;51.058;6.922;2023-06-05T11:57:44;28.30;5.50
5009;DHT22;2523;51.058;6.922;2023-06-05T12:00:13;28.20;5.70
5009;DHT22;2523;51.058;6.922;2023-06-05T12:02:42;28.20;5.20
5009;DHT22;2523;51.058;6.922;2023-06-05T12:05:08;27.90;5.30
5009;DHT22;2523;51.058;6.922;2023-06-05T12:07:35;28.00;6.40
5009;DHT22;2523;51.058;6.922;2023-06-05T12:10:06;27.50;4.80
5009;DHT22;2523;51.058;6.922;2023-06-05T12:12:33;27.80;5.40
5009;DHT22;2523;51.058;6.922;2023-06-05T12:15:16;28.20;4.80
5009;DHT22;2523;51.058;6.922;2023-06-05T12:17:53;28.30;5.00
5009;DHT22;2523;51.058;6.922;2023-06-05T12:20:19;28.40;4.80
5009;DHT22;2523;51.058;6.922;2023-06-05T12:22:46;28.30;5.20
5009;DHT22;2523;51.058;6.922;2023-06-05T12:25:22;28.30;4.60
5009;DHT22;2523;51.058;6.922;2023-06-05T12:27:49;28.40;5.70
5009;DHT22;2523;51.058;6.922;2023-06-05T12:30:15;28.20;5.00
5009;DHT22;2523;51.058;6.922;2023-06-05T12:32:42;27.90;5.00
5009;DHT22;2523;51.058;6.922;2023-06-05T12:35:24;28.00;6.10
5009;DHT22;2523;51.058;6.922;2023-06-05T12:37:51;28.00;4.40
5009;DHT22;2523;51.058;6.922;2023-06-05T12:40:17;28.20;4.80
5009;DHT22;2523;51.058;6.922;2023-06-05T12:42:47;28.40;5.00
5009;DHT22;2523;51.058;6.922;2023-06-05T12:45:14;28.50;5.40
5009;DHT22;2523;51.058;6.922;2023-06-05T12:47:40;28.60;5.20
5009;DHT22;2523;51.058;6.922;2023-06-05T12:50:08;28.70;5.30
5009;DHT22;2523;51.058;6.922;2023-06-05T12:52:40;28.60;4.70
5009;DHT22;2523;51.058;6.922;2023-06-05T12:55:07;28.50;4.70
5009;DHT22;2523;51.058;6.922;2023-06-05T12:57:34;28.80;3.90
5009;DHT22;2523;51.058;6.922;2023-06-05T13:00:02;28.30;4.60
5009;DHT22;2523;51.058;6.922;2023-06-05T13:02:36;28.70;5.60
5009;DHT22;2523;51.058;6.922;2023-06-05T13:05:01;29.10;4.50
5009;DHT22;2523;51.058;6.922;2023-06-05T13:07:28;29.10;4.40
5009;DHT22;2523;51.058;6.922;2023-06-05T13:09:54;28.70;4.10
5009;DHT22;2523;51.058;6.922;2023-06-05T13:12:20;28.40;4.40
5009;DHT22;2523;51.058;6.922;2023-06-05T13:14:46;28.50;4.80
5009;DHT22;2523;51.058;6.922;2023-06-05T13:17:12;28.50;4.50
5009;DHT22;2523;51.058;6.922;2023-06-05T13:19:37;28.60;5.40
5009;DHT22;2523;51.058;6.922;2023-06-05T13:22:03;28.40;4.50
5009;DHT22;2523;51.058;6.922;2023-06-05T13:24:29;28.30;4.10
5009;DHT22;2523;51.058;6.922;2023-06-05T13:26:55;28.20;4.60
5009;DHT22;2523;51.058;6.922;2023-06-05T13:29:20;28.10;4.40
5009;DHT22;2523;51.058;6.922;2023-06-05T13:31:46;28.20;5.00
5009;DHT22;2523;51.058;6.922;2023-06-05T13:34:12;27.90;4.60
5009;DHT22;2523;51.058;6.922;2023-06-05T13:36:37;28.20;5.60
5009;DHT22;2523;51.058;6.922;2023-06-05T13:39:04;28.20;5.50
5009;DHT22;2523;51.058;6.922;2023-06-05T13:41:29;27.90;4.70
5009;DHT22;2523;51.058;6.922;2023-06-05T13:43:55;27.70;4.70
5009;DHT22;2523;51.058;6.922;2023-06-05T13:46:23;27.60;4.90
5009;DHT22;2523;51.058;6.922;2023-06-05T13:48:48;27.80;5.50
5009;DHT22;2523;51.058;6.922;2023-06-05T13:51:14;27.90;4.30
5009;DHT22;2523;51.058;6.922;2023-06-05T13:53:41;27.90;5.30
5009;DHT22;2523;51.058;6.922;2023-06-05T13:56:06;28.10;5.80
5009;DHT22;2523;51.058;6.922;2023-06-05T13:58:32;28.20;5.20
5009;DHT22;2523;51.058;6.922;2023-06-05T14:00:59;28.30;4.10
5009;DHT22;2523;51.058;6.922;2023-06-05T14:03:25;28.50;3.90
5009;DHT22;2523;51.058;6.922;2023-06-05T14:05:51;28.30;5.00
5009;DHT22;2523;51.058;6.922;2023-06-05T14:08:16;28.20;5.10
5009;DHT22;2523;51.058;6.922;2023-06-05T14:10:42;28.20;5.10
5009;DHT22;2523;51.058;6.922;2023-06-05T14:13:08;28.30;4.90
5009;DHT22;2523;51.058;6.922;2023-06-05T14:15:34;28.30;4.80
5009;DHT22;2523;51.058;6.922;2023-06-05T14:18:02;28.40;4.90
5009;DHT22;2523;51.058;6.922;2023-06-05T14:20:28;27.90;3.90
5009;DHT22;2523;51.058;6.922;2023-06-05T14:22:57;27.90;4.50
5009;DHT22;2523;51.058;6.922;2023-06-05T14:25:23;27.70;4.90
5009;DHT22;2523;51.058;6.922;2023-06-05T14:27:54;28.10;5.10
5009;DHT22;2523;51.058;6.922;2023-06-05T14:30:20;28.20;5.00
5009;DHT22;2523;51.058;6.922;2023-06-05T14:32:46;28.30;4.60
5009;DHT22;2523;51.058;6.922;2023-06-05T14:35:12;28.20;4.30
5009;DHT22;2523;51.058;6.922;2023-06-05T14:37:37;28.40;4.90
5009;DHT22;2523;51.058;6.922;2023-06-05T14:40:03;28.40;4.60
5009;DHT22;2523;51.058;6.922;2023-06-05T14:42:30;28.30;5.10
5009;DHT22;2523;51.058;6.922;2023-06-05T14:44:55;28.40;5.30
5009;DHT22;2523;51.058;6.922;2023-06-05T14:47:21;28.50;5.00
5009;DHT22;2523;51.058;6.922;2023-06-05T14:49:47;28.20;5.00
5009;DHT22;2523;51.058;6.922;2023-06-05T14:52:13;28.00;4.60
5009;DHT22;2523;51.058;6.922;2023-06-05T14:54:38;27.70;4.90
5009;DHT22;2523;51.058;6.922;2023-06-05T14:57:04;27.60;4.30
5009;DHT22;2523;51.058;6.922;2023-06-05T14:59:31;27.70;4.10
5009;DHT22;2523;51.058;6.922;2023-06-05T15:01:56;27.80;4.40
5009;DHT22;2523;51.058;6.922;2023-06-05T15:04:22;27.80;4.10
5009;DHT22;2523;51.058;6.922;2023-06-05T15:06:47;27.60;3.80
5009;DHT22;2523;51.058;6.922;2023-06-05T15:09:16;27.70;4.50
5009;DHT22;2523;51.058;6.922;2023-06-05T15:11:42;27.50;4.10
5009;DHT22;2523;51.058;6.922;2023-06-05T15:14:07;27.50;4.40
5009;DHT22;2523;51.058;6.922;2023-06-05T15:16:33;27.40;4.30
5009;DHT22;2523;51.058;6.922;2023-06-05T15:18:58;27.20;4.40
5009;DHT22;2523;51.058;6.922;2023-06-05T15:21:24;27.30;4.70
5009;DHT22;2523;51.058;6.922;2023-06-05T15:23:49;27.30;4.40
5009;DHT22;2523;51.058;6.922;2023-06-05T15:26:15;27.10;4.90
5009;DHT22;2523;51.058;6.922;2023-06-05T15:44:14;26.70;5.40
5009;DHT22;2523;51.058;6.922;2023-06-05T15:46:40;26.70;5.50
5009;DHT22;2523;51.058;6.922;2023-06-05T15:49:06;26.70;6.00
5009;DHT22;2523;51.058;6.922;2023-06-05T15:51:31;26.60;5.40
5009;DHT22;2523;51.058;6.922;2023-06-05T15:53:57;26.50;5.30
5009;DHT22;2523;51.058;6.922;2023-06-05T15:56:25;26.40;5.30
5009;DHT22;2523;51.058;6.922;2023-06-05T15:58:52;26.30;5.50
5009;DHT22;2523;51.058;6.922;2023-06-05T16:01:17;26.30;5.80
5009;DHT22;2523;51.058;6.922;2023-06-05T16:03:43;26.20;6.20
5009;DHT22;2523;51.058;6.922;2023-06-05T16:06:08;26.10;6.80
5009;DHT22;2523;51.058;6.922;2023-06-05T16:08:36;26.10;8.30
5009;DHT22;2523;51.058;6.922;2023-06-05T16:11:02;26.10;6.80
5009;DHT22;2523;51.058;6.922;2023-06-05T16:13:28;25.90;7.30
5009;DHT22;2523;51.058;6.922;2023-06-05T16:37:22;25.50;8.00
5009;DHT22;2523;51.058;6.922;2023-06-05T16:39:48;25.40;8.40
5009;DHT22;2523;51.058;6.922;2023-06-05T16:42:14;25.20;9.80
5009;DHT22;2523;51.058;6.922;2023-06-05T16:44:40;25.10;9.00
5009;DHT22;2523;51.058;6.922;2023-06-05T16:47:06;25.00;9.40
5009;DHT22;2523;51.058;6.922;2023-06-05T16:49:31;25.00;8.80
5009;DHT22;2523;51.058;6.922;2023-06-05T16:51:57;24.90;9.10
5009;DHT22;2523;51.058;6.922;2023-06-05T16:54:23;24.90;9.90
5009;DHT22;2523;51.058;6.922;2023-06-05T16:56:49;24.90;9.60
5009;DHT22;2523;51.058;6.922;2023-06-05T16:59:22;24.90;9.50
5009;DHT22;2523;51.058;6.922;2023-06-05T17:01:47;24.80;8.60
5009;DHT22;2523;51.058;6.922;2023-06-05T17:04:13;24.80;8.60
5009;DHT22;2523;51.058;6.922;2023-06-05T17:06:43;24.80;8.90